createdAt,value
2019-04-28T00:00:51.054Z,67.20
2019-04-28T00:03:22.293Z,67.40
2019-04-28T00:05:51.962Z,66.70
2019-04-28T00:08:23.001Z,67.30
2019-04-28T00:10:53.387Z,67.80
2019-04-28T00:13:23.194Z,68.00
2019-04-28T00:15:54.758Z,68.00
2019-04-28T00:18:24.730Z,68.70
2019-04-28T00:21:00.855Z,68.30
2019-04-28T00:23:39.797Z,68.40
2019-04-28T00:26:31.000Z,67.20
2019-04-28T00:29:01.267Z,66.90
2019-04-28T00:31:31.278Z,68.00
2019-04-28T00:34:21.214Z,66.70
2019-04-28T00:36:52.773Z,67.00
2019-04-28T00:39:22.736Z,65.90
2019-04-28T00:41:52.534Z,66.30
2019-04-28T00:44:23.388Z,65.70
2019-04-28T00:46:53.265Z,66.20
2019-04-28T00:49:41.934Z,65.80
2019-04-28T00:52:11.942Z,65.40
2019-04-28T00:54:42.132Z,66.70
2019-04-28T00:57:12.020Z,65.90
2019-04-28T00:59:54.175Z,66.40
2019-04-28T01:02:31.174Z,66.20
2019-04-28T01:05:02.062Z,66.20
2019-04-28T01:07:33.665Z,66.70
2019-04-28T01:10:04.311Z,66.30
2019-04-28T01:12:34.187Z,66.40
2019-04-28T01:15:05.771Z,66.80
2019-04-28T01:17:39.706Z,67.00
2019-04-28T01:20:12.397Z,67.00
2019-04-28T01:22:42.211Z,67.20
2019-04-28T01:25:12.084Z,66.90
2019-04-28T01:27:43.434Z,65.90
2019-04-28T01:30:21.182Z,66.30
2019-04-28T01:33:01.356Z,66.30
2019-04-28T01:35:31.020Z,65.50
2019-04-28T01:38:00.706Z,66.10
2019-04-28T01:40:30.553Z,65.50
2019-04-28T01:43:01.093Z,66.30
2019-04-28T01:45:30.930Z,67.90
2019-04-28T01:48:02.298Z,67.80
2019-04-28T01:50:33.101Z,69.00
2019-04-28T01:53:02.976Z,69.70
2019-04-28T01:55:33.093Z,69.10
2019-04-28T01:58:02.877Z,70.30
2019-04-28T02:00:32.568Z,72.40
2019-04-28T02:03:02.340Z,73.40
2019-04-28T02:05:32.151Z,72.50
2019-04-28T02:08:01.773Z,74.60
2019-04-28T02:10:32.287Z,75.90
2019-04-28T02:13:01.901Z,76.50
2019-04-28T02:15:31.639Z,77.40
2019-04-28T02:18:20.716Z,78.60
2019-04-28T02:20:52.015Z,78.20
2019-04-28T02:23:32.280Z,79.00
2019-04-28T02:26:02.612Z,79.40
2019-04-28T02:28:32.335Z,79.50
2019-04-28T02:31:03.256Z,79.60
2019-04-28T02:33:35.098Z,80.60
2019-04-28T02:36:08.576Z,80.70
2019-04-28T02:38:35.541Z,82.70
2019-04-28T02:41:05.410Z,79.90
2019-04-28T02:43:35.062Z,80.70
2019-04-28T02:46:04.857Z,79.50
2019-04-28T02:48:34.488Z,80.80
2019-04-28T02:51:11.843Z,80.60
2019-04-28T02:53:42.475Z,80.50
2019-04-28T02:56:12.062Z,80.00
2019-04-28T02:58:41.844Z,79.90
2019-04-28T03:01:21.876Z,80.40
2019-04-28T03:03:42.834Z,79.90
2019-04-28T03:06:12.525Z,79.80
2019-04-28T03:08:42.293Z,79.50
2019-04-28T03:11:12.136Z,80.10
2019-04-28T03:13:41.922Z,78.80
2019-04-28T03:16:11.682Z,79.10
2019-04-28T03:18:41.522Z,79.50
2019-04-28T03:21:11.598Z,78.60
2019-04-28T03:23:41.509Z,79.80
2019-04-28T03:26:12.825Z,77.40
2019-04-28T03:28:46.907Z,77.60
2019-04-28T03:31:55.263Z,77.30
2019-04-28T03:33:56.291Z,76.30
2019-04-28T03:36:26.002Z,76.90
2019-04-28T03:38:56.471Z,75.50
2019-04-28T03:41:26.213Z,75.60
2019-04-28T03:43:55.921Z,74.20
2019-04-28T03:46:30.352Z,74.50
2019-04-28T03:49:00.749Z,74.10
2019-04-28T03:51:30.945Z,72.70
2019-04-28T03:54:02.942Z,73.30
2019-04-28T03:56:32.033Z,71.80
2019-04-28T03:59:01.771Z,72.80
2019-04-28T04:01:32.638Z,71.60
2019-04-28T04:04:03.520Z,71.20
2019-04-28T04:06:33.758Z,71.70
2019-04-28T04:09:04.068Z,72.00
2019-04-28T04:11:35.617Z,72.20
2019-04-28T04:14:06.903Z,72.00
2019-04-28T04:16:40.354Z,71.80
2019-04-28T04:19:10.997Z,73.00
2019-04-28T04:21:40.692Z,72.50
2019-04-28T04:24:10.892Z,74.40
2019-04-28T04:26:41.121Z,72.80
2019-04-28T04:29:11.178Z,72.70
2019-04-28T04:31:42.689Z,72.80
2019-04-28T04:34:12.347Z,73.20
2019-04-28T04:36:42.064Z,72.10
2019-04-28T04:39:11.726Z,73.30
2019-04-28T04:41:43.649Z,71.80
2019-04-28T04:44:11.896Z,71.00
2019-04-28T04:46:41.679Z,71.50
2019-04-28T04:49:11.574Z,71.70
2019-04-28T04:51:43.912Z,71.60
2019-04-28T04:54:11.790Z,71.20
2019-04-28T04:56:41.329Z,71.40
2019-04-28T04:59:11.197Z,71.20
2019-04-28T05:01:42.679Z,70.90
2019-04-28T05:04:16.976Z,71.60
2019-04-28T05:06:46.722Z,71.40
2019-04-28T05:09:16.438Z,71.20
2019-04-28T05:11:46.122Z,72.40
2019-04-28T05:14:15.854Z,71.60
2019-04-28T05:16:45.691Z,71.90
2019-04-28T05:19:16.629Z,72.70
2019-04-28T05:21:47.473Z,72.10
2019-04-28T05:24:30.225Z,71.70
2019-04-28T05:26:59.716Z,72.10
2019-04-28T05:29:30.678Z,72.40
2019-04-28T05:32:03.420Z,72.50
2019-04-28T05:34:31.061Z,72.80
2019-04-28T05:37:00.828Z,72.80
2019-04-28T05:39:30.723Z,73.30
2019-04-28T05:42:00.836Z,74.20
2019-04-28T05:44:32.153Z,73.60
2019-04-28T05:47:02.319Z,73.60
2019-04-28T05:49:36.511Z,73.60
2019-04-28T05:52:11.602Z,73.80
2019-04-28T05:54:49.617Z,73.80
2019-04-28T05:57:21.076Z,73.60
2019-04-28T05:59:54.466Z,73.50
2019-04-28T06:02:25.778Z,72.90
2019-04-28T06:04:54.601Z,73.40
2019-04-28T06:07:31.520Z,74.00
2019-04-28T06:10:01.270Z,72.90
2019-04-28T06:12:31.951Z,73.30
2019-04-28T06:15:02.083Z,72.90
2019-04-28T06:17:31.884Z,72.90
2019-04-28T06:20:01.589Z,73.30
2019-04-28T06:22:31.258Z,72.90
2019-04-28T06:25:00.848Z,73.40
2019-04-28T06:27:32.649Z,72.80
2019-04-28T06:30:01.338Z,73.40
2019-04-28T06:32:31.999Z,74.40
2019-04-28T06:35:01.635Z,74.10
2019-04-28T06:37:31.888Z,75.00
2019-04-28T06:40:01.641Z,75.00
2019-04-28T06:42:31.254Z,74.40
2019-04-28T06:45:00.801Z,74.20
2019-04-28T06:47:30.536Z,74.40
2019-04-28T06:50:00.292Z,74.10
2019-04-28T06:52:30.037Z,75.00
2019-04-28T06:54:59.699Z,74.50
2019-04-28T06:57:29.334Z,74.80
2019-04-28T06:59:59.133Z,73.70
2019-04-28T07:02:29.010Z,74.10
2019-04-28T07:05:02.185Z,73.80
2019-04-28T07:07:29.935Z,74.00
2019-04-28T07:09:59.517Z,73.70
2019-04-28T07:12:29.386Z,74.90
2019-04-28T07:14:59.093Z,73.60
2019-04-28T07:17:29.965Z,73.40
2019-04-28T07:20:04.212Z,73.80
2019-04-28T07:22:33.921Z,74.40
2019-04-28T07:25:08.172Z,73.10
2019-04-28T07:27:37.846Z,73.00
2019-04-28T07:30:09.515Z,73.00
2019-04-28T07:32:39.317Z,72.70
2019-04-28T07:35:11.317Z,72.30
2019-04-28T07:37:40.973Z,72.10
2019-04-28T07:40:10.669Z,72.20
2019-04-28T07:42:40.307Z,70.90
2019-04-28T07:45:10.411Z,70.60
2019-04-28T07:47:40.227Z,71.20
2019-04-28T07:50:11.117Z,70.90
2019-04-28T07:52:42.575Z,72.00
2019-04-28T07:55:12.176Z,70.30
2019-04-28T07:57:41.887Z,70.50
2019-04-28T08:00:13.332Z,68.40
2019-04-28T08:02:43.475Z,67.80
2019-04-28T08:05:13.452Z,68.20
2019-04-28T08:07:43.845Z,69.90
2019-04-28T08:10:17.693Z,67.30
2019-04-28T08:12:57.438Z,67.20
2019-04-28T08:15:35.190Z,66.70
2019-04-28T08:18:05.418Z,66.60
2019-04-28T08:20:35.644Z,66.90
2019-04-28T08:23:05.417Z,67.50
2019-04-28T08:25:35.228Z,65.60
2019-04-28T08:28:05.002Z,65.30
2019-04-28T08:30:35.281Z,64.40
2019-04-28T08:33:18.556Z,64.10
2019-04-28T08:35:48.327Z,65.10
2019-04-28T08:38:18.260Z,65.90
2019-04-28T08:40:48.028Z,64.70
2019-04-28T08:43:17.833Z,63.70
2019-04-28T08:45:47.545Z,63.90
2019-04-28T08:48:17.524Z,63.00
2019-04-28T08:50:47.337Z,64.10
2019-04-28T08:53:17.297Z,62.80
2019-04-28T08:55:48.202Z,62.80
2019-04-28T08:58:17.967Z,63.20
2019-04-28T09:00:47.877Z,64.00
2019-04-28T09:03:17.632Z,63.20
2019-04-28T09:05:47.384Z,64.00
2019-04-28T09:08:17.010Z,63.40
2019-04-28T09:10:46.715Z,62.00
2019-04-28T09:13:16.382Z,61.20
2019-04-28T09:15:46.186Z,62.60
2019-04-28T09:18:15.904Z,62.70
2019-04-28T09:20:45.706Z,63.20
2019-04-28T09:23:15.388Z,63.60
2019-04-28T09:25:46.086Z,63.20
2019-04-28T09:28:15.992Z,61.30
2019-04-28T09:30:45.705Z,61.30
2019-04-28T09:33:15.801Z,61.80
2019-04-28T09:35:45.598Z,63.00
2019-04-28T09:38:16.136Z,64.00
2019-04-28T09:40:46.706Z,65.00
2019-04-28T09:43:20.687Z,65.80
2019-04-28T09:45:54.807Z,64.70
2019-04-28T09:48:24.494Z,64.90
2019-04-28T09:50:54.206Z,65.70
2019-04-28T09:53:23.980Z,65.10
2019-04-28T09:55:53.736Z,66.30
2019-04-28T09:58:23.546Z,65.00
2019-04-28T10:00:53.317Z,65.40
2019-04-28T10:03:25.290Z,65.60
2019-04-28T10:05:56.754Z,65.20
2019-04-28T10:08:26.402Z,64.50
2019-04-28T10:10:56.213Z,64.10
2019-04-28T10:13:25.959Z,64.20
2019-04-28T10:15:55.645Z,64.10
2019-04-28T10:18:25.445Z,64.30
2019-04-28T10:20:56.322Z,61.90
2019-04-28T10:23:26.183Z,62.80
2019-04-28T10:26:02.378Z,63.60
2019-04-28T10:28:38.344Z,64.40
2019-04-28T10:31:08.915Z,63.00
2019-04-28T10:33:40.297Z,60.80
2019-04-28T10:36:09.265Z,59.80
2019-04-28T10:38:40.459Z,59.60
2019-04-28T10:41:11.879Z,60.10
2019-04-28T10:43:42.499Z,60.60
2019-04-28T10:46:12.500Z,60.40
2019-04-28T10:48:44.289Z,59.30
2019-04-28T10:51:14.228Z,57.90
2019-04-28T10:53:44.290Z,58.40
2019-04-28T10:56:14.073Z,57.60
2019-04-28T10:58:45.695Z,56.70
2019-04-28T11:01:15.358Z,57.90
2019-04-28T11:03:47.020Z,56.80
2019-04-28T11:06:18.258Z,58.30
2019-04-28T11:09:00.746Z,58.00
2019-04-28T11:11:31.880Z,57.70
2019-04-28T11:14:02.689Z,58.00
2019-04-28T11:16:34.085Z,57.50
2019-04-28T11:19:04.463Z,57.50
2019-04-28T11:21:34.251Z,56.70
2019-04-28T11:24:04.080Z,56.10
2019-04-28T11:26:33.974Z,56.30
2019-04-28T11:29:04.181Z,57.10
2019-04-28T11:31:33.856Z,56.20
2019-04-28T11:34:12.149Z,56.60
2019-04-28T11:36:41.819Z,56.20
2019-04-28T11:39:13.281Z,57.10
2019-04-28T11:41:44.691Z,56.70
2019-04-28T11:44:14.735Z,55.90
2019-04-28T11:46:44.735Z,57.30
2019-04-28T11:49:14.577Z,57.20
2019-04-28T11:51:44.267Z,57.50
2019-04-28T11:54:14.096Z,57.40
2019-04-28T11:56:43.849Z,57.20
2019-04-28T11:59:14.146Z,58.00
2019-04-28T12:01:44.001Z,58.50
2019-04-28T12:04:15.284Z,58.20
2019-04-28T12:06:45.097Z,58.40
2019-04-28T12:09:26.086Z,57.30
2019-04-28T12:11:57.653Z,56.10
2019-04-28T12:14:28.970Z,56.50
2019-04-28T12:17:16.583Z,56.50
2019-04-28T12:19:57.007Z,57.30
2019-04-28T12:22:26.872Z,57.80
2019-04-28T12:24:56.704Z,57.90
2019-04-28T12:27:26.605Z,57.90
2019-04-28T12:29:56.758Z,57.80
2019-04-28T12:32:27.053Z,57.30
2019-04-28T12:34:58.057Z,57.10
2019-04-28T12:37:28.003Z,56.90
2019-04-28T12:39:57.706Z,55.70
2019-04-28T12:42:27.403Z,56.40
2019-04-28T12:44:58.793Z,55.30
2019-04-28T12:47:31.963Z,56.30
2019-04-28T12:50:16.622Z,56.50
2019-04-28T12:52:47.401Z,56.40
2019-04-28T12:55:21.622Z,56.20
2019-04-28T12:57:51.601Z,57.40
2019-04-28T13:00:30.508Z,57.10
2019-04-28T13:03:21.724Z,57.90
2019-04-28T13:06:02.592Z,58.80
2019-04-28T13:08:26.769Z,58.10
2019-04-28T13:10:56.948Z,57.70
2019-04-28T13:13:28.079Z,57.90
2019-04-28T13:15:57.687Z,60.70
2019-04-28T13:18:27.840Z,62.60
2019-04-28T13:20:59.090Z,63.90
2019-04-28T13:23:30.107Z,68.00
2019-04-28T13:26:07.576Z,68.70
2019-04-28T13:28:40.592Z,69.40
2019-04-28T13:31:10.363Z,69.40
2019-04-28T13:33:55.385Z,68.90
2019-04-28T13:36:14.984Z,69.50
2019-04-28T13:38:43.080Z,70.70
2019-04-28T13:41:12.990Z,67.70
2019-04-28T13:43:42.973Z,65.40
2019-04-28T13:46:12.815Z,67.40
2019-04-28T13:48:43.607Z,65.50
2019-04-28T13:51:13.872Z,64.50
2019-04-28T13:53:44.054Z,64.00
2019-04-28T13:56:13.876Z,64.10
2019-04-28T13:58:51.653Z,61.00
2019-04-28T14:01:26.592Z,58.60
2019-04-28T14:04:13.508Z,55.50
2019-04-28T14:06:45.730Z,50.30
2019-04-28T14:09:16.801Z,51.10
2019-04-28T14:11:45.933Z,52.00
2019-04-28T14:14:17.736Z,51.40
2019-04-28T14:16:47.574Z,52.80
2019-04-28T14:19:17.585Z,51.90
2019-04-28T14:21:47.321Z,53.00
2019-04-28T14:24:18.335Z,52.80
2019-04-28T14:26:49.609Z,54.00
2019-04-28T14:29:20.745Z,54.60
2019-04-28T14:31:50.998Z,54.90
2019-04-28T14:34:21.622Z,55.40
2019-04-28T14:36:51.916Z,55.00
2019-04-28T14:39:21.729Z,54.80
2019-04-28T14:41:51.579Z,54.20
2019-04-28T14:44:22.633Z,55.60
2019-04-28T14:46:52.260Z,54.70
2019-04-28T14:49:22.365Z,54.60
2019-04-28T14:51:53.414Z,55.40
2019-04-28T14:54:24.281Z,55.10
2019-04-28T14:56:55.880Z,55.60
2019-04-28T14:59:25.959Z,56.40
2019-04-28T15:02:12.255Z,56.90
2019-04-28T15:05:01.411Z,57.70
2019-04-28T15:07:41.981Z,56.60
2019-04-28T15:10:29.930Z,56.80
2019-04-28T15:13:00.864Z,56.90
2019-04-28T15:15:30.548Z,57.80
2019-04-28T15:18:01.670Z,57.60
2019-04-28T15:20:31.437Z,57.40
2019-04-28T15:23:01.159Z,57.10
2019-04-28T15:25:31.051Z,57.80
2019-04-28T15:28:00.802Z,57.10
2019-04-28T15:30:30.524Z,57.00
2019-04-28T15:33:00.260Z,57.10
2019-04-28T15:35:29.945Z,57.30
2019-04-28T15:37:59.765Z,58.30
2019-04-28T15:40:29.450Z,58.20
2019-04-28T15:42:59.164Z,58.10
2019-04-28T15:45:28.993Z,58.10
2019-04-28T15:47:58.776Z,58.90
2019-04-28T15:50:28.508Z,59.00
2019-04-28T15:52:58.424Z,58.30
2019-04-28T15:55:34.241Z,58.30
2019-04-28T15:58:08.493Z,58.60
2019-04-28T16:00:39.526Z,58.10
2019-04-28T16:03:09.208Z,58.60
2019-04-28T16:05:38.889Z,58.20
2019-04-28T16:08:08.633Z,58.30
2019-04-28T16:10:38.330Z,58.50
2019-04-28T16:13:08.027Z,58.00
2019-04-28T16:15:37.763Z,59.20
2019-04-28T16:18:07.577Z,58.90
2019-04-28T16:20:37.290Z,57.90
2019-04-28T16:23:07.075Z,56.90
2019-04-28T16:25:37.982Z,55.90
2019-04-28T16:28:07.793Z,56.50
2019-04-28T16:30:37.484Z,56.30
2019-04-28T16:33:07.403Z,56.70
2019-04-28T16:35:37.222Z,56.40
2019-04-28T16:38:07.023Z,57.70
2019-04-28T16:40:39.125Z,57.50
2019-04-28T16:43:14.862Z,57.50
2019-04-28T16:45:44.729Z,57.50
2019-04-28T16:48:15.565Z,57.90
2019-04-28T16:50:45.576Z,58.70
2019-04-28T16:53:16.357Z,59.10
2019-04-28T16:55:47.729Z,59.40
2019-04-28T16:58:19.077Z,59.20
2019-04-28T17:00:52.960Z,59.30
2019-04-28T17:03:22.832Z,59.30
2019-04-28T17:05:52.555Z,59.70
2019-04-28T17:08:22.395Z,59.30
2019-04-28T17:10:52.329Z,59.00
2019-04-28T17:13:22.302Z,59.10
2019-04-28T17:15:52.187Z,59.40
2019-04-28T17:18:23.584Z,58.90
2019-04-28T17:20:54.436Z,58.90
2019-04-28T17:23:23.959Z,58.60
2019-04-28T17:25:53.760Z,59.00
2019-04-28T17:28:23.518Z,58.70
2019-04-28T17:30:53.433Z,59.30
2019-04-28T17:33:23.212Z,60.10
2019-04-28T17:35:54.841Z,59.40
2019-04-28T17:38:27.172Z,59.70
2019-04-28T17:40:56.915Z,59.50
2019-04-28T17:43:28.039Z,60.20
2019-04-28T17:45:57.954Z,59.70
2019-04-28T17:48:36.254Z,59.30
2019-04-28T17:51:08.131Z,59.90
2019-04-28T17:53:37.975Z,61.00
2019-04-28T17:56:07.665Z,60.60
2019-04-28T17:58:37.459Z,61.10
2019-04-28T18:01:11.572Z,61.40
2019-04-28T18:03:43.328Z,62.00
2019-04-28T18:06:23.647Z,62.60
2019-04-28T18:08:53.584Z,63.00
2019-04-28T18:11:24.679Z,63.30
2019-04-28T18:13:55.543Z,63.20
2019-04-28T18:16:43.605Z,63.30
2019-04-28T18:19:17.797Z,63.50
2019-04-28T18:21:47.683Z,63.80
2019-04-28T18:24:17.490Z,63.50
2019-04-28T18:26:47.336Z,63.80
2019-04-28T18:29:17.101Z,64.10
2019-04-28T18:32:03.844Z,64.20
2019-04-28T18:37:26.073Z,64.50
2019-04-28T18:40:16.394Z,64.80
2019-04-28T18:42:59.818Z,65.00
2019-04-28T18:45:29.500Z,65.80
2019-04-28T18:47:59.294Z,66.30
2019-04-28T18:50:30.269Z,66.10
2019-04-28T18:52:59.914Z,66.30
2019-04-28T18:55:29.661Z,66.70
2019-04-28T18:57:59.453Z,67.00
2019-04-28T19:00:30.840Z,67.00
2019-04-28T19:02:59.804Z,67.10
2019-04-28T19:05:40.527Z,67.00
2019-04-28T19:08:20.785Z,67.20
2019-04-28T19:10:58.196Z,67.80
2019-04-28T19:13:32.727Z,67.70
2019-04-28T19:16:19.488Z,68.30
2019-04-28T19:18:50.857Z,68.60
2019-04-28T19:21:19.674Z,68.80
2019-04-28T19:23:49.314Z,69.20
2019-04-28T19:26:19.048Z,69.40
2019-04-28T19:28:48.845Z,69.70
2019-04-28T19:31:18.822Z,70.00
2019-04-28T19:33:48.492Z,70.20
2019-04-28T19:36:19.336Z,70.30
2019-04-28T19:39:02.173Z,70.60
2019-04-28T19:41:19.672Z,70.80
2019-04-28T19:43:49.356Z,70.90
2019-04-28T19:46:19.610Z,71.10
2019-04-28T19:48:51.167Z,71.40
2019-04-28T19:51:31.263Z,71.60
2019-04-28T19:53:51.682Z,71.60
2019-04-28T19:56:28.897Z,72.00
2019-04-28T19:59:00.287Z,71.90
2019-04-28T20:01:30.792Z,71.90
2019-04-28T20:04:00.448Z,72.10
2019-04-28T20:06:31.289Z,72.40
2019-04-28T20:09:00.941Z,72.30
2019-04-28T20:11:32.087Z,72.50
2019-04-28T20:14:01.822Z,72.60
2019-04-28T20:16:31.642Z,72.80
2019-04-28T20:19:01.479Z,73.00
2019-04-28T20:21:31.601Z,73.20
2019-04-28T20:24:01.484Z,73.40
2019-04-28T20:26:31.637Z,74.00
2019-04-28T20:29:01.323Z,73.80
2019-04-28T20:31:31.119Z,74.00
2019-04-28T20:34:01.000Z,74.10
2019-04-28T20:36:38.172Z,74.30
2019-04-28T20:39:09.638Z,74.30
2019-04-28T20:41:41.039Z,74.40
2019-04-28T20:44:10.613Z,74.60
2019-04-28T20:46:40.244Z,74.70
2019-04-28T20:49:09.896Z,74.80
2019-04-28T20:51:39.557Z,74.90
2019-04-28T20:54:10.914Z,75.00
2019-04-28T20:56:39.772Z,75.10
2019-04-28T20:59:15.297Z,75.40
2019-04-28T21:01:45.021Z,75.50
2019-04-28T21:04:14.730Z,75.90
2019-04-28T21:06:44.723Z,76.10
2019-04-28T21:09:14.398Z,76.10
2019-04-28T21:11:44.095Z,76.40
2019-04-28T21:14:14.060Z,76.50
2019-04-28T21:16:43.827Z,76.70
2019-04-28T21:19:13.429Z,76.80
2019-04-28T21:21:43.191Z,76.80
2019-04-28T21:24:12.877Z,77.20
2019-04-28T21:26:42.700Z,77.20
2019-04-28T21:29:12.441Z,77.30
2019-04-28T21:31:42.074Z,77.30
2019-04-28T21:34:11.837Z,77.40
2019-04-28T21:36:41.605Z,77.50
2019-04-28T21:39:11.430Z,77.50
2019-04-28T21:41:41.362Z,77.60
2019-04-28T21:44:21.784Z,77.70
2019-04-28T21:46:55.910Z,77.70
2019-04-28T21:49:27.393Z,77.60
2019-04-28T21:51:58.057Z,77.70
2019-04-28T21:54:27.739Z,77.50
2019-04-28T21:56:57.478Z,77.70
2019-04-28T21:59:27.429Z,77.90
2019-04-28T22:01:57.300Z,78.20
2019-04-28T22:04:27.403Z,77.90
2019-04-28T22:06:57.040Z,77.70
2019-04-28T22:09:26.806Z,77.90
2019-04-28T22:11:56.515Z,77.90
2019-04-28T22:14:26.228Z,78.00
2019-04-28T22:16:56.089Z,78.20
2019-04-28T22:19:25.788Z,78.10
2019-04-28T22:21:56.629Z,78.10
2019-04-28T22:24:32.677Z,78.00
2019-04-28T22:27:04.036Z,78.30
2019-04-28T22:29:32.949Z,78.50
2019-04-28T22:32:03.028Z,79.80
2019-04-28T22:34:32.760Z,80.30
2019-04-28T22:37:02.600Z,80.00
2019-04-28T22:39:32.357Z,79.80
2019-04-28T22:42:02.240Z,79.90
2019-04-28T22:44:31.982Z,80.00
2019-04-28T22:47:01.803Z,79.80
2019-04-28T22:49:31.563Z,80.00
2019-04-28T22:52:01.437Z,80.90
2019-04-28T22:54:51.464Z,80.60
2019-04-28T22:57:25.887Z,80.90
2019-04-28T22:59:57.293Z,81.30
2019-04-28T23:02:27.299Z,81.40
2019-04-28T23:05:05.076Z,81.80
2019-04-28T23:07:37.389Z,82.20
2019-04-28T23:10:09.225Z,82.30
2019-04-28T23:12:39.105Z,82.50
2019-04-28T23:15:09.413Z,82.80
2019-04-28T23:17:39.323Z,82.80
2019-04-28T23:20:12.096Z,83.00
2019-04-28T23:22:49.659Z,82.80
2019-04-28T23:25:19.356Z,82.90
2019-04-28T23:27:49.104Z,83.20
2019-04-28T23:30:40.299Z,83.60
2019-04-28T23:33:10.055Z,83.70
2019-04-28T23:35:39.912Z,83.70
2019-04-28T23:38:11.280Z,83.60
2019-04-28T23:40:41.741Z,83.70
2019-04-28T23:43:12.945Z,84.40
2019-04-28T23:45:42.728Z,83.80
2019-04-28T23:48:13.623Z,84.00
2019-04-28T23:50:45.089Z,83.80
2019-04-28T23:53:15.622Z,84.10
2019-04-28T23:55:45.386Z,83.80
2019-04-28T23:58:15.267Z,84.20
